Nrp Polar — CTEJ — position and weather

sailwx.info

Track history (hours):
 
Tides and Currents Weather Stations Pressure Air Temp Water Temp Dewpoint Dewpoint Depression Visibility Wind Speed Wind Dir Waves Ship Positions

Nrp Polar

Last reported at 2015-Mar-30 13:32 UTC. Time now 2015-Apr-01 14:27 UTC.
Position N 38°40' W 009°09'.

; draft 3 m.

Type: Sailing vessel. MMSI: 263142000.

Date/timePositionNaut miles runAvg speedWind from/ knotsBaromVisibWave heightAir tempDewpointWater temp
2015-Mar-30 13:32N 38°40' W 009°09'2 1.6
2015-Mar-30 12:33N 38°41' W 009°11'7 6.8
2015-Mar-30 11:33N 38°40' W 009°19'6 6.0
2015-Mar-30 10:33N 38°34' W 009°16'6 5.9
2015-Mar-30 09:33N 38°29' W 009°14'5 4.5
2015-Mar-30 08:25N 38°24' W 009°11'6 6.4
2015-Mar-30 07:33N 38°25' W 009°04'7 6.5
2015-Mar-30 06:33N 38°28' W 008°57'2 0.1
2015-Mar-29 13:33N 38°30' W 008°54'0 0.0
2015-Mar-29 12:31N 38°30' W 008°54'0 0.0
2015-Mar-29 11:32N 38°30' W 008°54'0 0.0
2015-Mar-29 10:33N 38°30' W 008°54'0 0.0
2015-Mar-29 09:33N 38°30' W 008°54'0 0.0
2015-Mar-29 08:33N 38°30' W 008°54'0 0.0
2015-Mar-28 15:12N 38°30' W 008°54'1 1.3
2015-Mar-28 14:16N 38°29' W 008°53'1 1.2
2015-Mar-28 13:32N 38°28' W 008°52'0 0.0
2015-Mar-28 12:33N 38°28' W 008°52'0 0.0
2015-Mar-28 11:33N 38°28' W 008°52'0 0.0
2015-Mar-28 10:32N 38°28' W 008°52'0 0.0
2015-Mar-28 09:33N 38°28' W 008°52'0 0.0
2015-Mar-28 08:33N 38°28' W 008°52'0 0.1
2015-Mar-28 07:33N 38°28' W 008°52'2 0.3
2015-Mar-27 23:28N 38°30' W 008°54'0 0.3
2015-Mar-27 22:28N 38°30' W 008°54'2 1.9
2015-Mar-27 21:33N 38°29' W 008°52'0 0.0
2015-Mar-27 20:33N 38°29' W 008°52'0 0.0
2015-Mar-27 19:30N 38°29' W 008°52'0 0.0
2015-Mar-27 18:26N 38°29' W 008°52'0 0.0
2015-Mar-27 17:20N 38°29' W 008°52'0 0.0
2015-Mar-27 09:11N 38°29' W 008°52'2 2.9
2015-Mar-27 08:33N 38°30' W 008°54'0 0.0
2015-Mar-26 19:32N 38°30' W 008°54'0 0.0
2015-Mar-26 18:33N 38°30' W 008°54'4 4.3
2015-Mar-26 17:33N 38°27' W 008°58'8 7.6
2015-Mar-26 16:33N 38°24' W 009°07'7 6.7
2015-Mar-26 15:33N 38°26' W 009°16'8 7.7
2015-Mar-26 14:33N 38°33' W 009°18'7 6.9
2015-Mar-26 13:33N 38°40' W 009°18'8 7.6
2015-Mar-26 12:33N 38°41' W 009°09'1 1.1
2015-Mar-26 11:33N 38°40' W 009°09'0 0.0
2015-Mar-26 10:33N 38°40' W 009°09'0 0.0
2015-Mar-25 15:08N 38°40' W 009°09'0 0.0
2015-Mar-25 14:33N 38°40' W 009°09'0 0.0
2015-Mar-25 13:33N 38°40' W 009°09'0 0.0
2015-Mar-25 12:32N 38°40' W 009°09'0 0.0
2015-Mar-24 16:20N 38°40' W 009°09'0 0.0
2015-Mar-24 15:33N 38°40' W 009°09'0 0.0
2015-Mar-24 14:33N 38°40' W 009°09'0 0.0
2015-Mar-24 11:33N 38°40' W 009°09'0 0.0
2015-Mar-24 10:33N 38°40' W 009°09'  
Track history (hours):
 
Tides and Currents Weather Stations Pressure Air Temp Water Temp Dewpoint Dewpoint Depression Visibility Wind Speed Wind Dir Waves Ship Positions

Nrp Polar

Last reported at 2015-Mar-30 13:32 UTC. Time now 2015-Apr-01 14:27 UTC.
Position N 38°40' W 009°09'.

; draft 3 m.

Type: Sailing vessel. MMSI: 263142000.

Date/timePositionNaut miles runAvg speedWind from/ knotsBaromVisibWave heightAir tempDewpointWater temp
2015-Mar-30 13:32N 38°40' W 009°09'2 1.6
2015-Mar-30 12:33N 38°41' W 009°11'7 6.8
2015-Mar-30 11:33N 38°40' W 009°19'6 6.0
2015-Mar-30 10:33N 38°34' W 009°16'6 5.9
2015-Mar-30 09:33N 38°29' W 009°14'5 4.5
2015-Mar-30 08:25N 38°24' W 009°11'6 6.4
2015-Mar-30 07:33N 38°25' W 009°04'7 6.5
2015-Mar-30 06:33N 38°28' W 008°57'2 0.1
2015-Mar-29 13:33N 38°30' W 008°54'0 0.0
2015-Mar-29 12:31N 38°30' W 008°54'0 0.0
2015-Mar-29 11:32N 38°30' W 008°54'0 0.0
2015-Mar-29 10:33N 38°30' W 008°54'0 0.0
2015-Mar-29 09:33N 38°30' W 008°54'0 0.0
2015-Mar-29 08:33N 38°30' W 008°54'0 0.0
2015-Mar-28 15:12N 38°30' W 008°54'1 1.3
2015-Mar-28 14:16N 38°29' W 008°53'1 1.2
2015-Mar-28 13:32N 38°28' W 008°52'0 0.0
2015-Mar-28 12:33N 38°28' W 008°52'0 0.0
2015-Mar-28 11:33N 38°28' W 008°52'0 0.0
2015-Mar-28 10:32N 38°28' W 008°52'0 0.0
2015-Mar-28 09:33N 38°28' W 008°52'0 0.0
2015-Mar-28 08:33N 38°28' W 008°52'0 0.1
2015-Mar-28 07:33N 38°28' W 008°52'2 0.3
2015-Mar-27 23:28N 38°30' W 008°54'0 0.3
2015-Mar-27 22:28N 38°30' W 008°54'2 1.9
2015-Mar-27 21:33N 38°29' W 008°52'0 0.0
2015-Mar-27 20:33N 38°29' W 008°52'0 0.0
2015-Mar-27 19:30N 38°29' W 008°52'0 0.0
2015-Mar-27 18:26N 38°29' W 008°52'0 0.0
2015-Mar-27 17:20N 38°29' W 008°52'0 0.0
2015-Mar-27 09:11N 38°29' W 008°52'2 2.9
2015-Mar-27 08:33N 38°30' W 008°54'0 0.0
2015-Mar-26 19:32N 38°30' W 008°54'0 0.0
2015-Mar-26 18:33N 38°30' W 008°54'4 4.3
2015-Mar-26 17:33N 38°27' W 008°58'8 7.6
2015-Mar-26 16:33N 38°24' W 009°07'7 6.7
2015-Mar-26 15:33N 38°26' W 009°16'8 7.7
2015-Mar-26 14:33N 38°33' W 009°18'7 6.9
2015-Mar-26 13:33N 38°40' W 009°18'8 7.6
2015-Mar-26 12:33N 38°41' W 009°09'1 1.1
2015-Mar-26 11:33N 38°40' W 009°09'0 0.0
2015-Mar-26 10:33N 38°40' W 009°09'0 0.0
2015-Mar-25 15:08N 38°40' W 009°09'0 0.0
2015-Mar-25 14:33N 38°40' W 009°09'0 0.0
2015-Mar-25 13:33N 38°40' W 009°09'0 0.0
2015-Mar-25 12:32N 38°40' W 009°09'0 0.0
2015-Mar-24 16:20N 38°40' W 009°09'0 0.0
2015-Mar-24 15:33N 38°40' W 009°09'0 0.0
2015-Mar-24 14:33N 38°40' W 009°09'0 0.0
2015-Mar-24 11:33N 38°40' W 009°09'0 0.0
2015-Mar-24 10:33N 38°40' W 009°09'  

Dump ship's entire track history